sensor_id;sensor_type;location;lat;lon;timestamp;pressure;altitude;pressure_sealevel;temperature;humidity
5126;BME280;63008;53.112;8.896;2022-12-18T00:00:09;102950.63;;;-5.51;82.04
5126;BME280;63008;53.112;8.896;2022-12-18T00:02:11;102943.84;;;-5.61;82.34
5126;BME280;63008;53.112;8.896;2022-12-18T00:04:20;102947.63;;;-5.56;82.52
5126;BME280;63008;53.112;8.896;2022-12-18T00:06:22;102946.97;;;-5.50;82.57
5126;BME280;63008;53.112;8.896;2022-12-18T00:08:23;102948.28;;;-5.46;82.01
5126;BME280;63008;53.112;8.896;2022-12-18T00:10:24;102949.44;;;-5.48;81.68
5126;BME280;63008;53.112;8.896;2022-12-18T00:12:25;102943.94;;;-5.55;81.82
5126;BME280;63008;53.112;8.896;2022-12-18T00:14:26;102941.25;;;-5.47;81.88
5126;BME280;63008;53.112;8.896;2022-12-18T00:16:28;102952.13;;;-5.48;81.72
5126;BME280;63008;53.112;8.896;2022-12-18T00:18:31;102945.44;;;-5.44;81.50
5126;BME280;63008;53.112;8.896;2022-12-18T00:20:36;102944.22;;;-5.42;81.20
5126;BME280;63008;53.112;8.896;2022-12-18T00:22:37;102941.09;;;-5.45;81.25
5126;BME280;63008;53.112;8.896;2022-12-18T00:24:38;102950.44;;;-5.49;81.36
5126;BME280;63008;53.112;8.896;2022-12-18T00:26:39;102957.47;;;-5.48;81.39
5126;BME280;63008;53.112;8.896;2022-12-18T00:28:41;102952.25;;;-5.42;81.68
5126;BME280;63008;53.112;8.896;2022-12-18T00:30:42;102953.41;;;-5.37;81.90
5126;BME280;63008;53.112;8.896;2022-12-18T00:32:43;102950.72;;;-5.37;81.75
5126;BME280;63008;53.112;8.896;2022-12-18T00:34:44;102944.53;;;-5.37;81.57
5126;BME280;63008;53.112;8.896;2022-12-18T00:36:47;102942.69;;;-5.37;81.71
5126;BME280;63008;53.112;8.896;2022-12-18T00:38:48;102940.19;;;-5.38;81.73
5126;BME280;63008;53.112;8.896;2022-12-18T00:40:49;102942.22;;;-5.40;81.70
5126;BME280;63008;53.112;8.896;2022-12-18T00:42:50;102944.72;;;-5.38;81.45
5126;BME280;63008;53.112;8.896;2022-12-18T00:44:57;102941.19;;;-5.39;81.42
5126;BME280;63008;53.112;8.896;2022-12-18T00:46:58;102930.84;;;-5.42;81.44
5126;BME280;63008;53.112;8.896;2022-12-18T00:48:59;102932.72;;;-5.42;81.74
5126;BME280;63008;53.112;8.896;2022-12-18T00:51:00;102931.38;;;-5.46;81.57
5126;BME280;63008;53.112;8.896;2022-12-18T00:53:01;102928.38;;;-5.43;81.67
5126;BME280;63008;53.112;8.896;2022-12-18T00:55:02;102929.19;;;-5.43;81.78
5126;BME280;63008;53.112;8.896;2022-12-18T00:57:03;102934.53;;;-5.43;81.74
5126;BME280;63008;53.112;8.896;2022-12-18T00:59:04;102939.06;;;-5.43;81.73
5126;BME280;63008;53.112;8.896;2022-12-18T01:01:06;102945.88;;;-5.41;81.89
5126;BME280;63008;53.112;8.896;2022-12-18T01:03:07;102953.25;;;-5.43;81.73
5126;BME280;63008;53.112;8.896;2022-12-18T01:05:14;102950.59;;;-5.43;81.73
5126;BME280;63008;53.112;8.896;2022-12-18T01:07:15;102957.59;;;-5.42;81.82
5126;BME280;63008;53.112;8.896;2022-12-18T01:09:16;102951.88;;;-5.39;81.82
5126;BME280;63008;53.112;8.896;2022-12-18T01:11:19;102964.25;;;-5.38;81.51
5126;BME280;63008;53.112;8.896;2022-12-18T01:13:20;102959.91;;;-5.39;81.33
5126;BME280;63008;53.112;8.896;2022-12-18T01:15:21;102965.25;;;-5.39;81.49
5126;BME280;63008;53.112;8.896;2022-12-18T01:17:22;102963.44;;;-5.38;81.34
5126;BME280;63008;53.112;8.896;2022-12-18T01:19:23;102960.75;;;-5.38;81.37
5126;BME280;63008;53.112;8.896;2022-12-18T01:21:24;102964.81;;;-5.42;81.32
5126;BME280;63008;53.112;8.896;2022-12-18T01:23:25;102956.78;;;-5.42;81.53
5126;BME280;63008;53.112;8.896;2022-12-18T01:25:26;102965.31;;;-5.47;81.37
5126;BME280;63008;53.112;8.896;2022-12-18T01:27:27;102965.97;;;-5.45;81.59
5126;BME280;63008;53.112;8.896;2022-12-18T01:29:28;102963.13;;;-5.43;81.41
5126;BME280;63008;53.112;8.896;2022-12-18T01:31:31;102964.81;;;-5.42;81.39
5126;BME280;63008;53.112;8.896;2022-12-18T01:33:33;102970.81;;;-5.40;81.34
5126;BME280;63008;53.112;8.896;2022-12-18T01:35:40;102975.31;;;-5.41;81.21
5126;BME280;63008;53.112;8.896;2022-12-18T01:37:41;102979.84;;;-5.41;81.18
5126;BME280;63008;53.112;8.896;2022-12-18T01:39:42;102984.84;;;-5.38;80.94
5126;BME280;63008;53.112;8.896;2022-12-18T01:41:44;102978.16;;;-5.42;81.04
5126;BME280;63008;53.112;8.896;2022-12-18T01:46:43;102986.00;;;-5.41;80.98
5126;BME280;63008;53.112;8.896;2022-12-18T01:48:47;102982.66;;;-5.43;80.99
5126;BME280;63008;53.112;8.896;2022-12-18T01:50:49;102984.38;;;-5.50;80.98
5126;BME280;63008;53.112;8.896;2022-12-18T01:53:04;102978.19;;;-5.50;81.17
5126;BME280;63008;53.112;8.896;2022-12-18T01:55:06;102986.41;;;-5.52;81.15
5126;BME280;63008;53.112;8.896;2022-12-18T01:57:08;102989.25;;;-5.53;81.13
5126;BME280;63008;53.112;8.896;2022-12-18T01:59:09;102986.41;;;-5.52;81.34
5126;BME280;63008;53.112;8.896;2022-12-18T02:01:12;102984.91;;;-5.54;81.20
5126;BME280;63008;53.112;8.896;2022-12-18T02:03:13;102992.91;;;-5.54;81.29
5126;BME280;63008;53.112;8.896;2022-12-18T02:05:33;102975.22;;;-5.55;81.42
5126;BME280;63008;53.112;8.896;2022-12-18T02:07:44;102975.06;;;-5.54;81.41
5126;BME280;63008;53.112;8.896;2022-12-18T02:14:38;102969.03;;;-5.56;81.17
5126;BME280;63008;53.112;8.896;2022-12-18T02:16:52;102979.72;;;-5.56;81.04
5126;BME280;63008;53.112;8.896;2022-12-18T02:19:01;102977.25;;;-5.57;81.19
5126;BME280;63008;53.112;8.896;2022-12-18T02:23:36;102981.56;;;-5.56;81.25
5126;BME280;63008;53.112;8.896;2022-12-18T02:26:59;102983.91;;;-5.53;81.04
5126;BME280;63008;53.112;8.896;2022-12-18T02:28:31;102979.56;;;-5.54;81.09
5126;BME280;63008;53.112;8.896;2022-12-18T02:30:35;102975.56;;;-5.58;80.98
5126;BME280;63008;53.112;8.896;2022-12-18T02:32:42;102968.41;;;-5.66;81.35
5126;BME280;63008;53.112;8.896;2022-12-18T02:34:45;102972.75;;;-5.65;81.62
5126;BME280;63008;53.112;8.896;2022-12-18T02:36:48;102973.75;;;-5.66;81.53
5126;BME280;63008;53.112;8.896;2022-12-18T02:38:51;102972.25;;;-5.60;81.44
5126;BME280;63008;53.112;8.896;2022-12-18T02:40:53;102966.91;;;-5.60;81.32
5126;BME280;63008;53.112;8.896;2022-12-18T02:42:54;102965.88;;;-5.59;81.19
5126;BME280;63008;53.112;8.896;2022-12-18T02:44:55;102964.22;;;-5.60;81.15
5126;BME280;63008;53.112;8.896;2022-12-18T02:46:56;102959.88;;;-5.61;81.29
5126;BME280;63008;53.112;8.896;2022-12-18T02:49:05;102954.06;;;-5.73;81.48
5126;BME280;63008;53.112;8.896;2022-12-18T02:51:24;102967.56;;;-5.66;81.70
5126;BME280;63008;53.112;8.896;2022-12-18T02:53:53;102962.22;;;-5.66;81.57
5126;BME280;63008;53.112;8.896;2022-12-18T02:56:06;102972.09;;;-5.67;81.59
5126;BME280;63008;53.112;8.896;2022-12-18T02:58:41;102967.75;;;-5.68;81.28
5126;BME280;63008;53.112;8.896;2022-12-18T03:00:57;102969.22;;;-5.65;81.43
5126;BME280;63008;53.112;8.896;2022-12-18T03:03:21;102966.03;;;-5.61;81.09
5126;BME280;63008;53.112;8.896;2022-12-18T03:07:36;102973.91;;;-5.59;81.02
5126;BME280;63008;53.112;8.896;2022-12-18T03:09:42;102979.41;;;-5.61;80.77
5126;BME280;63008;53.112;8.896;2022-12-18T03:11:48;102983.94;;;-5.61;80.77
5126;BME280;63008;53.112;8.896;2022-12-18T03:14:15;102981.28;;;-5.61;80.73
5126;BME280;63008;53.112;8.896;2022-12-18T03:16:23;102978.63;;;-5.69;80.88
5126;BME280;63008;53.112;8.896;2022-12-18T03:18:30;102975.78;;;-5.68;81.02
5126;BME280;63008;53.112;8.896;2022-12-18T03:20:34;102976.94;;;-5.70;80.92
5126;BME280;63008;53.112;8.896;2022-12-18T03:22:38;102984.31;;;-5.72;80.92
5126;BME280;63008;53.112;8.896;2022-12-18T03:24:39;102985.97;;;-5.71;81.06
5126;BME280;63008;53.112;8.896;2022-12-18T03:26:43;102985.47;;;-5.75;80.94
5126;BME280;63008;53.112;8.896;2022-12-18T03:28:51;102990.16;;;-5.69;80.94
5126;BME280;63008;53.112;8.896;2022-12-18T03:30:57;102990.81;;;-5.67;80.80
5126;BME280;63008;53.112;8.896;2022-12-18T03:33:07;102991.31;;;-5.71;80.72
5126;BME280;63008;53.112;8.896;2022-12-18T03:35:11;102990.50;;;-5.72;80.68
5126;BME280;63008;53.112;8.896;2022-12-18T03:37:13;102983.31;;;-5.71;80.58
5126;BME280;63008;53.112;8.896;2022-12-18T03:39:15;102984.31;;;-5.72;80.57
5126;BME280;63008;53.112;8.896;2022-12-18T03:41:39;102985.66;;;-5.76;80.78
5126;BME280;63008;53.112;8.896;2022-12-18T03:45:54;102983.03;;;-5.84;80.91
5126;BME280;63008;53.112;8.896;2022-12-18T03:48:05;102982.69;;;-5.81;80.86
5126;BME280;63008;53.112;8.896;2022-12-18T03:50:12;102975.34;;;-5.79;80.63
5126;BME280;63008;53.112;8.896;2022-12-18T03:52:26;102986.13;;;-5.73;80.66
5126;BME280;63008;53.112;8.896;2022-12-18T03:54:30;102987.13;;;-5.74;80.35
5126;BME280;63008;53.112;8.896;2022-12-18T03:56:36;102992.41;;;-5.80;80.45
5126;BME280;63008;53.112;8.896;2022-12-18T03:58:39;102989.03;;;-5.82;80.39
5126;BME280;63008;53.112;8.896;2022-12-18T04:00:42;102987.22;;;-5.82;80.56
5126;BME280;63008;53.112;8.896;2022-12-18T04:02:54;102989.53;;;-5.79;80.31
5126;BME280;63008;53.112;8.896;2022-12-18T04:04:58;102980.19;;;-5.83;80.21
5126;BME280;63008;53.112;8.896;2022-12-18T04:07:01;102970.69;;;-5.85;80.23
5126;BME280;63008;53.112;8.896;2022-12-18T04:09:03;102971.03;;;-5.88;80.37
5126;BME280;63008;53.112;8.896;2022-12-18T04:11:05;102967.69;;;-5.90;80.40
5126;BME280;63008;53.112;8.896;2022-12-18T04:13:06;102963.16;;;-5.90;80.41
5126;BME280;63008;53.112;8.896;2022-12-18T04:15:07;102956.66;;;-5.87;80.25
5126;BME280;63008;53.112;8.896;2022-12-18T04:17:09;102949.66;;;-5.88;80.16
5126;BME280;63008;53.112;8.896;2022-12-18T04:19:10;102950.66;;;-5.89;80.20
5126;BME280;63008;53.112;8.896;2022-12-18T04:21:11;102956.72;;;-5.95;80.33
5126;BME280;63008;53.112;8.896;2022-12-18T04:23:12;102959.72;;;-5.98;80.51
5126;BME280;63008;53.112;8.896;2022-12-18T04:25:13;102959.19;;;-5.94;80.27
5126;BME280;63008;53.112;8.896;2022-12-18T04:27:15;102958.69;;;-5.89;80.17
5126;BME280;63008;53.112;8.896;2022-12-18T04:29:16;102949.81;;;-5.90;80.22
5126;BME280;63008;53.112;8.896;2022-12-18T04:31:17;102958.03;;;-5.91;80.00
5126;BME280;63008;53.112;8.896;2022-12-18T04:33:18;102952.00;;;-5.93;80.05
5126;BME280;63008;53.112;8.896;2022-12-18T04:35:19;102958.88;;;-5.99;80.26
5126;BME280;63008;53.112;8.896;2022-12-18T04:37:20;102947.22;;;-6.06;80.36
5126;BME280;63008;53.112;8.896;2022-12-18T04:39:21;102968.59;;;-6.06;80.70
5126;BME280;63008;53.112;8.896;2022-12-18T04:41:22;102977.25;;;-6.04;80.58
5126;BME280;63008;53.112;8.896;2022-12-18T04:43:22;102974.94;;;-6.07;80.41
5126;BME280;63008;53.112;8.896;2022-12-18T04:45:23;102972.06;;;-6.05;80.37
5126;BME280;63008;53.112;8.896;2022-12-18T04:47:24;102974.75;;;-6.05;80.32
5126;BME280;63008;53.112;8.896;2022-12-18T04:49:25;102974.75;;;-5.97;80.32
5126;BME280;63008;53.112;8.896;2022-12-18T04:51:26;102979.25;;;-5.98;80.15
5126;BME280;63008;53.112;8.896;2022-12-18T04:53:27;102980.75;;;-5.95;80.09
5126;BME280;63008;53.112;8.896;2022-12-18T04:55:28;102981.09;;;-5.98;79.89
5126;BME280;63008;53.112;8.896;2022-12-18T04:57:29;102976.25;;;-6.03;80.04
5126;BME280;63008;53.112;8.896;2022-12-18T04:59:30;102979.94;;;-6.04;80.07
5126;BME280;63008;53.112;8.896;2022-12-18T05:01:31;102980.09;;;-6.05;80.12
5126;BME280;63008;53.112;8.896;2022-12-18T05:03:33;102985.59;;;-5.99;80.18
5126;BME280;63008;53.112;8.896;2022-12-18T05:05:35;102981.09;;;-6.06;80.23
5126;BME280;63008;53.112;8.896;2022-12-18T05:07:36;102978.06;;;-6.03;80.19
5126;BME280;63008;53.112;8.896;2022-12-18T05:09:37;102983.25;;;-6.02;80.09
5126;BME280;63008;53.112;8.896;2022-12-18T05:11:38;102985.44;;;-6.05;80.08
5126;BME280;63008;53.112;8.896;2022-12-18T05:13:39;102997.63;;;-6.03;80.20
5126;BME280;63008;53.112;8.896;2022-12-18T05:15:40;102997.47;;;-6.09;80.34
5126;BME280;63008;53.112;8.896;2022-12-18T05:17:42;102997.13;;;-6.06;80.26
5126;BME280;63008;53.112;8.896;2022-12-18T05:19:43;103003.13;;;-6.04;80.30
5126;BME280;63008;53.112;8.896;2022-12-18T05:21:44;103015.31;;;-6.02;79.92
5126;BME280;63008;53.112;8.896;2022-12-18T05:23:45;103004.47;;;-6.08;80.21
5126;BME280;63008;53.112;8.896;2022-12-18T05:25:51;103001.81;;;-6.08;80.25
5126;BME280;63008;53.112;8.896;2022-12-18T05:27:52;103009.81;;;-6.08;80.33
5126;BME280;63008;53.112;8.896;2022-12-18T05:29:53;103013.50;;;-6.09;80.14
5126;BME280;63008;53.112;8.896;2022-12-18T05:31:54;103019.34;;;-6.06;80.16
5126;BME280;63008;53.112;8.896;2022-12-18T05:33:55;103015.97;;;-6.08;80.07
5126;BME280;63008;53.112;8.896;2022-12-18T05:35:58;103022.16;;;-6.07;80.10
5126;BME280;63008;53.112;8.896;2022-12-18T05:37:59;103016.81;;;-6.07;80.06
5126;BME280;63008;53.112;8.896;2022-12-18T05:40:01;103019.66;;;-6.09;80.17
5126;BME280;63008;53.112;8.896;2022-12-18T05:42:02;103016.97;;;-6.09;79.99
5126;BME280;63008;53.112;8.896;2022-12-18T05:44:03;103021.66;;;-6.11;80.03
5126;BME280;63008;53.112;8.896;2022-12-18T05:46:05;103012.84;;;-6.11;79.94
5126;BME280;63008;53.112;8.896;2022-12-18T05:48:07;103018.34;;;-6.13;79.87
5126;BME280;63008;53.112;8.896;2022-12-18T05:50:09;103020.84;;;-6.11;79.86
5126;BME280;63008;53.112;8.896;2022-12-18T05:52:10;103015.66;;;-6.13;79.90
5126;BME280;63008;53.112;8.896;2022-12-18T05:54:11;103018.34;;;-6.13;79.71
5126;BME280;63008;53.112;8.896;2022-12-18T05:56:15;103011.81;;;-6.18;79.80
5126;BME280;63008;53.112;8.896;2022-12-18T05:58:16;103004.31;;;-6.15;79.93
5126;BME280;63008;53.112;8.896;2022-12-18T06:00:17;103007.00;;;-6.23;79.81
5126;BME280;63008;53.112;8.896;2022-12-18T06:02:18;102999.50;;;-6.27;79.70
5126;BME280;63008;53.112;8.896;2022-12-18T06:04:21;102998.84;;;-6.29;80.00
5126;BME280;63008;53.112;8.896;2022-12-18T06:06:24;103004.84;;;-6.27;80.11
5126;BME280;63008;53.112;8.896;2022-12-18T06:08:26;103000.19;;;-6.33;80.07
5126;BME280;63008;53.112;8.896;2022-12-18T06:10:27;102998.66;;;-6.28;80.01
5126;BME280;63008;53.112;8.896;2022-12-18T06:12:28;103002.34;;;-6.21;79.95
5126;BME280;63008;53.112;8.896;2022-12-18T06:14:29;103007.84;;;-6.22;79.92
5126;BME280;63008;53.112;8.896;2022-12-18T06:16:30;103014.84;;;-6.21;79.73
5126;BME280;63008;53.112;8.896;2022-12-18T06:18:32;103013.16;;;-6.22;79.39
5126;BME280;63008;53.112;8.896;2022-12-18T06:20:33;103022.69;;;-6.28;79.43
5126;BME280;63008;53.112;8.896;2022-12-18T06:22:34;103023.53;;;-6.35;79.56
5126;BME280;63008;53.112;8.896;2022-12-18T06:24:35;103021.69;;;-6.43;79.76
5126;BME280;63008;53.112;8.896;2022-12-18T06:26:38;103019.69;;;-6.49;79.97
5126;BME280;63008;53.112;8.896;2022-12-18T06:28:39;103019.19;;;-6.44;80.21
5126;BME280;63008;53.112;8.896;2022-12-18T06:30:43;103021.19;;;-6.38;79.87
5126;BME280;63008;53.112;8.896;2022-12-18T06:32:45;103026.88;;;-6.41;79.75
5126;BME280;63008;53.112;8.896;2022-12-18T06:34:46;103029.88;;;-6.44;79.67
5126;BME280;63008;53.112;8.896;2022-12-18T06:36:46;103037.88;;;-6.44;79.91
5126;BME280;63008;53.112;8.896;2022-12-18T06:38:47;103034.03;;;-6.50;80.02
5126;BME280;63008;53.112;8.896;2022-12-18T06:40:48;103031.38;;;-6.50;80.24
5126;BME280;63008;53.112;8.896;2022-12-18T06:42:49;103026.34;;;-6.45;80.21
5126;BME280;63008;53.112;8.896;2022-12-18T06:44:50;103027.53;;;-6.39;80.18
5126;BME280;63008;53.112;8.896;2022-12-18T06:46:51;103020.03;;;-6.36;79.83
5126;BME280;63008;53.112;8.896;2022-12-18T06:48:52;103021.53;;;-6.33;79.70
5126;BME280;63008;53.112;8.896;2022-12-18T06:50:53;103028.72;;;-6.42;79.62
5126;BME280;63008;53.112;8.896;2022-12-18T06:52:54;103023.69;;;-6.45;79.93
5126;BME280;63008;53.112;8.896;2022-12-18T06:54:55;103030.06;;;-6.38;80.07
5126;BME280;63008;53.112;8.896;2022-12-18T06:56:56;103034.38;;;-6.37;79.79
5126;BME280;63008;53.112;8.896;2022-12-18T06:58:57;103037.22;;;-6.46;79.79
5126;BME280;63008;53.112;8.896;2022-12-18T07:01:03;103038.38;;;-6.49;79.75
5126;BME280;63008;53.112;8.896;2022-12-18T07:03:05;103040.53;;;-6.52;79.71
5126;BME280;63008;53.112;8.896;2022-12-18T07:05:06;103042.72;;;-6.48;79.81
5126;BME280;63008;53.112;8.896;2022-12-18T07:07:07;103037.56;;;-6.49;80.13
5126;BME280;63008;53.112;8.896;2022-12-18T07:09:08;103040.72;;;-6.46;80.09
5126;BME280;63008;53.112;8.896;2022-12-18T07:11:09;103051.38;;;-6.46;80.23
5126;BME280;63008;53.112;8.896;2022-12-18T07:13:10;103054.22;;;-6.39;80.17
5126;BME280;63008;53.112;8.896;2022-12-18T07:15:11;103056.38;;;-6.43;80.22
5126;BME280;63008;53.112;8.896;2022-12-18T07:17:12;103062.25;;;-6.39;80.14
5126;BME280;63008;53.112;8.896;2022-12-18T07:19:13;103068.91;;;-6.35;80.26
5126;BME280;63008;53.112;8.896;2022-12-18T07:21:17;103062.75;;;-6.28;80.06
5126;BME280;63008;53.112;8.896;2022-12-18T07:23:18;103063.41;;;-6.26;79.82
5126;BME280;63008;53.112;8.896;2022-12-18T07:25:19;103061.44;;;-6.24;79.66
5126;BME280;63008;53.112;8.896;2022-12-18T07:27:20;103063.91;;;-6.22;79.46
5126;BME280;63008;53.112;8.896;2022-12-18T07:29:21;103053.25;;;-6.30;79.47
5126;BME280;63008;53.112;8.896;2022-12-18T07:31:22;103056.91;;;-6.31;79.93
5126;BME280;63008;53.112;8.896;2022-12-18T07:33:23;103058.91;;;-6.25;79.80
5126;BME280;63008;53.112;8.896;2022-12-18T07:35:24;103054.41;;;-6.25;79.62
5126;BME280;63008;53.112;8.896;2022-12-18T07:37:25;103057.56;;;-6.21;79.67
5126;BME280;63008;53.112;8.896;2022-12-18T07:39:26;103062.91;;;-6.21;79.73
5126;BME280;63008;53.112;8.896;2022-12-18T07:41:27;103070.91;;;-6.21;79.58
5126;BME280;63008;53.112;8.896;2022-12-18T07:43:28;103066.59;;;-6.22;79.62
5126;BME280;63008;53.112;8.896;2022-12-18T07:45:29;103057.41;;;-6.20;79.64
5126;BME280;63008;53.112;8.896;2022-12-18T07:47:30;103056.22;;;-6.17;79.61
5126;BME280;63008;53.112;8.896;2022-12-18T07:49:31;103051.22;;;-6.20;79.68
5126;BME280;63008;53.112;8.896;2022-12-18T07:51:32;103049.56;;;-6.21;79.81
5126;BME280;63008;53.112;8.896;2022-12-18T07:53:34;103043.88;;;-6.26;79.92
5126;BME280;63008;53.112;8.896;2022-12-18T07:55:35;103040.56;;;-6.28;80.32
5126;BME280;63008;53.112;8.896;2022-12-18T07:57:36;103039.56;;;-6.27;80.38
5126;BME280;63008;53.112;8.896;2022-12-18T07:59:37;103033.69;;;-6.15;80.43
5126;BME280;63008;53.112;8.896;2022-12-18T08:01:38;103033.69;;;-6.15;80.28
5126;BME280;63008;53.112;8.896;2022-12-18T08:03:40;103038.38;;;-6.17;80.28
5126;BME280;63008;53.112;8.896;2022-12-18T08:05:41;103032.53;;;-6.12;80.33
5126;BME280;63008;53.112;8.896;2022-12-18T08:07:42;103036.69;;;-6.10;80.24
5126;BME280;63008;53.112;8.896;2022-12-18T08:09:43;103046.38;;;-6.17;80.32
5126;BME280;63008;53.112;8.896;2022-12-18T08:11:44;103040.22;;;-6.09;80.47
5126;BME280;63008;53.112;8.896;2022-12-18T08:13:45;103039.19;;;-6.00;80.33
5126;BME280;63008;53.112;8.896;2022-12-18T08:15:46;103038.00;;;-5.98;80.17
5126;BME280;63008;53.112;8.896;2022-12-18T08:17:47;103033.53;;;-5.97;80.37
5126;BME280;63008;53.112;8.896;2022-12-18T08:19:48;103034.66;;;-5.92;80.41
5126;BME280;63008;53.112;8.896;2022-12-18T08:21:49;103025.31;;;-5.88;80.26
5126;BME280;63008;53.112;8.896;2022-12-18T08:23:51;103033.16;;;-5.86;80.38
5126;BME280;63008;53.112;8.896;2022-12-18T08:25:52;103027.28;;;-5.82;80.48
5126;BME280;63008;53.112;8.896;2022-12-18T08:27:54;103029.81;;;-5.80;80.55
5126;BME280;63008;53.112;8.896;2022-12-18T08:29:57;103029.47;;;-5.85;80.84
5126;BME280;63008;53.112;8.896;2022-12-18T08:31:58;103033.94;;;-5.78;81.08
5126;BME280;63008;53.112;8.896;2022-12-18T08:33:59;103034.25;;;-5.73;81.00
5126;BME280;63008;53.112;8.896;2022-12-18T08:36:01;103041.25;;;-5.64;81.12
5126;BME280;63008;53.112;8.896;2022-12-18T08:38:04;103047.25;;;-5.62;81.14
5126;BME280;63008;53.112;8.896;2022-12-18T08:40:05;103050.88;;;-5.55;81.02
5126;BME280;63008;53.112;8.896;2022-12-18T08:42:08;103054.72;;;-5.49;81.00
5126;BME280;63008;53.112;8.896;2022-12-18T08:44:27;103039.69;;;-5.42;80.81
5126;BME280;63008;53.112;8.896;2022-12-18T08:46:41;103047.16;;;-5.38;80.57
5126;BME280;63008;53.112;8.896;2022-12-18T08:48:43;103044.28;;;-5.29;80.69
5126;BME280;63008;53.112;8.896;2022-12-18T08:50:53;103036.72;;;-5.17;80.41
5126;BME280;63008;53.112;8.896;2022-12-18T08:52:54;103032.84;;;-5.15;80.51
5126;BME280;63008;53.112;8.896;2022-12-18T08:54:55;103027.13;;;-5.12;80.62
5126;BME280;63008;53.112;8.896;2022-12-18T08:56:56;103037.63;;;-5.02;80.70
5126;BME280;63008;53.112;8.896;2022-12-18T08:58:57;103033.91;;;-4.93;80.77
5126;BME280;63008;53.112;8.896;2022-12-18T09:01:02;103021.19;;;-4.91;80.45
5126;BME280;63008;53.112;8.896;2022-12-18T09:03:03;103019.13;;;-4.81;80.50
5126;BME280;63008;53.112;8.896;2022-12-18T09:05:05;103014.06;;;-4.76;80.21
5126;BME280;63008;53.112;8.896;2022-12-18T09:07:06;103015.56;;;-4.74;80.29
5126;BME280;63008;53.112;8.896;2022-12-18T09:09:07;103006.84;;;-4.76;80.53
5126;BME280;63008;53.112;8.896;2022-12-18T09:11:25;103005.06;;;-4.61;80.57
5126;BME280;63008;53.112;8.896;2022-12-18T09:13:26;103023.88;;;-4.46;80.04
5126;BME280;63008;53.112;8.896;2022-12-18T09:15:27;103022.41;;;-4.34;79.92
5126;BME280;63008;53.112;8.896;2022-12-18T09:17:28;103028.53;;;-4.26;79.66
5126;BME280;63008;53.112;8.896;2022-12-18T09:19:29;103030.19;;;-4.25;79.56
5126;BME280;63008;53.112;8.896;2022-12-18T09:21:32;103037.13;;;-4.30;79.73
5126;BME280;63008;53.112;8.896;2022-12-18T09:23:33;103031.06;;;-4.24;79.88
5126;BME280;63008;53.112;8.896;2022-12-18T09:25:35;103028.13;;;-4.15;79.53
5126;BME280;63008;53.112;8.896;2022-12-18T09:27:36;103028.03;;;-4.07;79.45
5126;BME280;63008;53.112;8.896;2022-12-18T09:29:37;103043.19;;;-3.99;79.40
5126;BME280;63008;53.112;8.896;2022-12-18T09:31:38;103040.72;;;-4.01;79.17
5126;BME280;63008;53.112;8.896;2022-12-18T09:33:40;103046.25;;;-3.88;78.98
5126;BME280;63008;53.112;8.896;2022-12-18T09:35:43;103048.50;;;-3.77;78.52
5126;BME280;63008;53.112;8.896;2022-12-18T09:37:44;103057.31;;;-3.68;78.69
5126;BME280;63008;53.112;8.896;2022-12-18T09:39:45;103053.31;;;-3.58;78.20
5126;BME280;63008;53.112;8.896;2022-12-18T09:41:51;103053.25;;;-3.50;77.81
5126;BME280;63008;53.112;8.896;2022-12-18T09:43:58;103055.56;;;-3.47;77.40
5126;BME280;63008;53.112;8.896;2022-12-18T09:46:11;103050.66;;;-3.58;77.47
5126;BME280;63008;53.112;8.896;2022-12-18T09:48:25;103053.22;;;-3.64;77.91
5126;BME280;63008;53.112;8.896;2022-12-18T09:50:30;103064.69;;;-3.56;78.16
5126;BME280;63008;53.112;8.896;2022-12-18T09:52:45;103060.28;;;-3.49;77.81
5126;BME280;63008;53.112;8.896;2022-12-18T09:56:58;103076.19;;;-3.33;77.26
5126;BME280;63008;53.112;8.896;2022-12-18T09:59:02;103077.50;;;-3.29;77.06
5126;BME280;63008;53.112;8.896;2022-12-18T10:01:13;103076.19;;;-3.33;77.17
5126;BME280;63008;53.112;8.896;2022-12-18T10:03:15;103070.84;;;-3.33;77.32
5126;BME280;63008;53.112;8.896;2022-12-18T10:05:20;103071.38;;;-3.23;77.09
5126;BME280;63008;53.112;8.896;2022-12-18T10:07:38;103070.72;;;-3.25;76.89
5126;BME280;63008;53.112;8.896;2022-12-18T10:09:53;103064.25;;;-3.31;77.44
5126;BME280;63008;53.112;8.896;2022-12-18T10:12:19;103059.34;;;-3.27;77.50
5126;BME280;63008;53.112;8.896;2022-12-18T10:14:29;103062.13;;;-3.21;77.66
5126;BME280;63008;53.112;8.896;2022-12-18T10:16:40;103056.53;;;-3.19;77.52
5126;BME280;63008;53.112;8.896;2022-12-18T10:19:07;103068.00;;;-3.11;77.62
5126;BME280;63008;53.112;8.896;2022-12-18T10:21:15;103058.75;;;-3.08;77.43
5126;BME280;63008;53.112;8.896;2022-12-18T10:23:37;103052.28;;;-2.99;77.20
5126;BME280;63008;53.112;8.896;2022-12-18T10:25:51;103045.63;;;-2.82;76.80
5126;BME280;63008;53.112;8.896;2022-12-18T10:28:00;103044.34;;;-2.72;75.74
5126;BME280;63008;53.112;8.896;2022-12-18T10:30:15;103035.81;;;-2.75;76.44
5126;BME280;63008;53.112;8.896;2022-12-18T10:32:18;103035.91;;;-2.83;75.88
5126;BME280;63008;53.112;8.896;2022-12-18T10:34:20;103039.28;;;-2.81;76.25
5126;BME280;63008;53.112;8.896;2022-12-18T10:36:22;103038.34;;;-2.88;76.19
5126;BME280;63008;53.112;8.896;2022-12-18T10:40:26;103040.22;;;-3.03;77.71
5126;BME280;63008;53.112;8.896;2022-12-18T10:42:27;103026.19;;;-2.84;76.55
5126;BME280;63008;53.112;8.896;2022-12-18T10:44:28;103016.75;;;-2.80;76.75
5126;BME280;63008;53.112;8.896;2022-12-18T10:46:29;103016.00;;;-2.74;76.64
5126;BME280;63008;53.112;8.896;2022-12-18T10:48:31;103019.69;;;-2.75;76.31
5126;BME280;63008;53.112;8.896;2022-12-18T10:50:34;103027.50;;;-2.80;76.03
5126;BME280;63008;53.112;8.896;2022-12-18T10:52:37;103030.19;;;-2.80;76.31
5126;BME280;63008;53.112;8.896;2022-12-18T10:54:38;103028.06;;;-2.85;76.19
5126;BME280;63008;53.112;8.896;2022-12-18T10:56:39;103024.91;;;-2.88;76.69
5126;BME280;63008;53.112;8.896;2022-12-18T10:58:40;103028.00;;;-2.91;76.72
5126;BME280;63008;53.112;8.896;2022-12-18T11:00:41;103031.66;;;-2.78;76.68
5126;BME280;63008;53.112;8.896;2022-12-18T11:02:42;103022.63;;;-2.70;76.66
5126;BME280;63008;53.112;8.896;2022-12-18T11:04:50;103006.13;;;-2.67;76.91
5126;BME280;63008;53.112;8.896;2022-12-18T11:07:04;102996.22;;;-2.67;76.62
5126;BME280;63008;53.112;8.896;2022-12-18T11:09:19;102986.44;;;-2.53;76.61
5126;BME280;63008;53.112;8.896;2022-12-18T11:11:22;102985.00;;;-2.49;76.75
5126;BME280;63008;53.112;8.896;2022-12-18T11:13:26;102977.03;;;-2.43;76.64